createdAt,value
2022-09-20T14:55:57.781Z,99306.94
2022-09-20T14:58:26.595Z,99306.47
2022-09-20T15:01:05.270Z,99317.03
2022-09-20T15:03:37.408Z,99315.97
2022-09-20T15:06:06.701Z,99320.22
2022-09-20T15:08:35.565Z,99317.03
2022-09-20T15:11:03.959Z,99319.66
2022-09-20T15:13:32.146Z,99321.75
2022-09-20T15:16:00.282Z,99327.34
2022-09-20T15:18:34.421Z,99329.47
2022-09-20T15:21:04.323Z,99339.50
2022-09-20T15:23:33.116Z,99335.91
2022-09-20T15:26:02.156Z,99349.97
2022-09-20T15:28:32.765Z,99350.06
2022-09-20T15:31:00.648Z,99363.16
2022-09-20T15:33:30.420Z,99365.12
2022-09-20T15:36:00.062Z,99363.16
2022-09-20T15:38:28.613Z,99363.50
2022-09-20T15:40:56.624Z,99362.75
2022-09-20T15:43:28.051Z,99377.03
2022-09-20T15:46:21.168Z,99377.56
2022-09-20T15:48:49.381Z,99377.16
2022-09-20T15:51:18.921Z,99385.47
2022-09-20T15:53:56.944Z,99376.28
2022-09-20T15:56:37.310Z,99384.28
2022-09-20T15:59:11.078Z,99385.63
2022-09-20T16:01:41.309Z,99389.44
2022-09-20T16:04:15.464Z,99387.88
2022-09-20T16:06:45.131Z,99385.22
2022-09-20T16:09:14.126Z,99388.19
2022-09-20T16:11:42.290Z,99390.19
2022-09-20T16:14:10.322Z,99385.03
2022-09-20T16:16:40.614Z,99395.12
2022-09-20T16:19:18.131Z,99383.78
2022-09-20T16:21:53.581Z,99377.09
2022-09-20T16:24:26.346Z,99370.09
2022-09-20T16:26:56.047Z,99371.09
2022-09-20T16:29:25.976Z,99372.81
2022-09-20T16:31:55.584Z,99375.41
2022-09-20T16:34:32.610Z,99375.41
2022-09-20T16:37:03.059Z,99379.28
2022-09-20T16:39:31.607Z,99382.91
2022-09-20T16:42:04.992Z,99383.31
2022-09-20T16:44:37.449Z,99378.25
2022-09-20T16:47:08.576Z,99376.50
2022-09-20T16:49:37.401Z,99380.69
2022-09-20T16:52:06.046Z,99380.53
2022-09-20T16:54:34.900Z,99388.16
2022-09-20T16:57:05.846Z,99389.22
2022-09-20T16:59:33.987Z,99388.78
2022-09-20T17:02:02.729Z,99392.38
2022-09-20T17:04:31.660Z,99387.88
2022-09-20T17:07:04.867Z,99381.44
2022-09-20T17:09:37.846Z,99386.66
2022-09-20T17:12:10.844Z,99394.28
2022-09-20T17:14:46.389Z,99381.75
2022-09-20T17:17:14.316Z,99384.88
2022-09-20T17:19:43.039Z,99390.81
2022-09-20T17:22:11.837Z,99383.78
2022-09-20T17:24:39.773Z,99391.84
2022-09-20T17:27:08.706Z,99386.75
2022-09-20T17:29:37.193Z,99389.72
2022-09-20T17:32:05.289Z,99389.66
2022-09-20T17:34:34.388Z,99390.41
2022-09-20T17:37:13.046Z,99396.53
2022-09-20T17:39:44.503Z,99394.75
2022-09-20T17:42:13.333Z,99399.34
2022-09-20T17:44:42.054Z,99400.34
2022-09-20T17:47:10.834Z,99411.06
2022-09-20T17:49:40.822Z,99411.06
2022-09-20T17:52:10.184Z,99406.44
2022-09-20T17:54:38.497Z,99415.06
2022-09-20T17:57:23.004Z,99420.81
2022-09-20T17:59:51.486Z,99422.94
2022-09-20T18:02:21.296Z,99430.00
2022-09-20T18:04:52.124Z,99433.94
2022-09-20T18:07:20.470Z,99428.66
2022-09-20T18:09:48.992Z,99438.41
2022-09-20T18:12:19.873Z,99436.56
2022-09-20T18:14:49.562Z,99438.91
2022-09-20T18:17:17.826Z,99443.97
2022-09-20T18:19:45.938Z,99440.12
2022-09-20T18:22:14.233Z,99448.16
2022-09-20T18:24:42.686Z,99448.56
2022-09-20T18:27:10.784Z,99449.84
2022-09-20T18:29:39.354Z,99453.66
2022-09-20T18:32:08.946Z,99454.09
2022-09-20T18:34:36.844Z,99447.63
2022-09-20T18:37:10.078Z,99456.69
2022-09-20T18:39:43.381Z,99460.31
2022-09-20T18:42:11.893Z,99458.41
2022-09-20T18:44:43.389Z,99463.97
2022-09-20T18:47:11.878Z,99469.66
2022-09-20T18:49:39.678Z,99469.91
2022-09-20T18:52:09.414Z,99481.97
2022-09-20T18:54:37.494Z,99480.06
2022-09-20T18:57:10.141Z,99480.97
2022-09-20T18:59:40.278Z,99489.66
2022-09-20T19:02:25.408Z,99483.75
2022-09-20T19:05:17.707Z,99484.66
2022-09-20T19:07:53.565Z,99477.56
2022-09-20T19:10:23.424Z,99483.31
2022-09-20T19:13:00.098Z,99478.72
2022-09-20T19:15:52.787Z,99471.00
2022-09-20T19:18:49.285Z,99472.97
2022-09-20T19:21:24.416Z,99467.94
2022-09-20T19:24:10.920Z,99473.72
2022-09-20T19:26:40.227Z,99464.09
2022-09-20T19:29:23.483Z,99467.69
2022-09-20T19:31:55.883Z,99477.25
2022-09-20T19:34:26.891Z,99467.34
2022-09-20T19:37:08.541Z,99476.00
2022-09-20T19:39:43.426Z,99475.47
2022-09-20T19:42:36.440Z,99471.12
2022-09-20T19:45:19.797Z,99478.91
2022-09-20T19:48:07.475Z,99474.47
2022-09-20T19:50:46.905Z,99483.22
2022-09-20T19:53:17.707Z,99484.41
2022-09-20T19:55:53.780Z,99480.53
2022-09-20T19:58:22.902Z,99480.88
2022-09-20T20:00:51.236Z,99478.59
2022-09-20T20:03:20.386Z,99488.31
2022-09-20T20:06:02.422Z,99499.97
2022-09-20T20:08:54.902Z,99499.56
2022-09-20T20:11:44.214Z,99501.38
2022-09-20T20:14:53.703Z,99499.84
2022-09-20T20:17:48.401Z,99500.44
2022-09-20T20:20:27.390Z,99502.75
2022-09-20T20:23:19.800Z,99497.03
2022-09-20T20:26:09.283Z,99499.09
2022-09-20T20:28:38.630Z,99494.41
2022-09-20T20:31:08.855Z,99504.13
2022-09-20T20:33:36.883Z,99513.19
2022-09-20T20:36:09.336Z,99511.50
2022-09-20T20:38:39.539Z,99510.59
2022-09-20T20:41:08.848Z,99514.22
2022-09-20T20:43:39.446Z,99515.50
2022-09-20T20:46:14.423Z,99506.59
2022-09-20T20:48:42.980Z,99510.41
2022-09-20T20:51:16.679Z,99514.78
2022-09-20T20:53:50.167Z,99522.59
2022-09-20T20:56:19.265Z,99522.84
2022-09-20T20:58:49.061Z,99526.75
2022-09-20T21:01:22.299Z,99534.81
2022-09-20T21:03:54.695Z,99527.56
2022-09-20T21:06:25.207Z,99533.84
2022-09-20T21:08:53.590Z,99525.81
2022-09-20T21:11:23.610Z,99528.53
2022-09-20T21:13:52.442Z,99533.75
2022-09-20T21:16:23.022Z,99532.31
2022-09-20T21:18:51.322Z,99529.22
2022-09-20T21:21:33.400Z,99537.66
2022-09-20T21:24:06.359Z,99540.16
2022-09-20T21:26:35.646Z,99540.97
2022-09-20T21:29:10.204Z,99544.53
2022-09-20T21:31:40.419Z,99536.28
2022-09-20T21:34:10.128Z,99538.78
2022-09-20T21:36:39.473Z,99544.00
2022-09-20T21:39:07.440Z,99547.66
2022-09-20T21:41:37.635Z,99547.97
2022-09-20T21:44:06.711Z,99543.41
2022-09-20T21:46:40.450Z,99543.31
2022-09-20T21:49:11.480Z,99539.22
2022-09-20T21:51:42.093Z,99541.44
2022-09-20T21:54:11.138Z,99538.03
2022-09-20T21:56:40.441Z,99542.66
2022-09-20T21:59:08.446Z,99545.91
2022-09-20T22:01:38.866Z,99548.50
2022-09-20T22:04:11.838Z,99550.03
2022-09-20T22:06:41.563Z,99550.25
2022-09-20T22:09:12.066Z,99556.94
2022-09-20T22:11:42.162Z,99559.91
2022-09-20T22:14:11.770Z,99557.34
2022-09-20T22:16:41.175Z,99563.69
2022-09-20T22:19:10.374Z,99563.28
2022-09-20T22:21:41.117Z,99562.19
2022-09-20T22:24:10.774Z,99564.13
2022-09-20T22:26:41.700Z,99564.41
2022-09-20T22:29:09.815Z,99564.34
2022-09-20T22:31:44.837Z,99564.41
2022-09-20T22:34:23.734Z,99561.75
2022-09-20T22:36:52.304Z,99567.81
2022-09-20T22:39:20.227Z,99564.41
2022-09-20T22:41:50.656Z,99558.91
2022-09-20T22:44:18.486Z,99562.59
2022-09-20T22:46:46.671Z,99563.56
2022-09-20T22:49:14.470Z,99556.03
2022-09-20T22:51:42.242Z,99553.91
2022-09-20T22:54:11.997Z,99559.97
2022-09-20T22:56:41.567Z,99557.34
2022-09-20T22:59:13.966Z,99554.25
2022-09-20T23:01:46.442Z,99551.41
2022-09-20T23:04:17.763Z,99558.50
2022-09-20T23:06:48.163Z,99556.63
2022-09-20T23:09:18.055Z,99561.38
2022-09-20T23:11:46.906Z,99556.00
2022-09-20T23:14:17.559Z,99556.09
2022-09-20T23:16:46.111Z,99555.03
2022-09-20T23:19:14.875Z,99561.16
2022-09-20T23:21:43.720Z,99557.81
2022-09-20T23:24:13.887Z,99558.56
2022-09-20T23:26:43.021Z,99564.47
2022-09-20T23:29:12.626Z,99565.41
2022-09-20T23:31:45.752Z,99565.41
2022-09-20T23:34:15.684Z,99566.06
2022-09-20T23:36:44.243Z,99578.59
2022-09-20T23:39:12.598Z,99572.25
2022-09-20T23:41:41.574Z,99573.84
2022-09-20T23:44:11.781Z,99575.66
2022-09-20T23:46:39.717Z,99582.87
2022-09-20T23:49:09.364Z,99582.87
2022-09-20T23:51:37.735Z,99582.13
2022-09-20T23:54:06.004Z,99573.22
2022-09-20T23:56:34.058Z,99574.22
2022-09-20T23:59:01.917Z,99567.28
